createdAt,value
2022-08-08T00:00:59.690Z,3.55
2022-08-08T00:06:11.546Z,3.50
2022-08-08T00:12:03.271Z,4.15
2022-08-08T00:17:23.347Z,3.67
2022-08-08T00:22:32.025Z,4.30
2022-08-08T00:27:36.951Z,4.47
2022-08-08T00:32:44.884Z,3.30
2022-08-08T00:38:31.226Z,5.30
2022-08-08T00:43:59.027Z,3.53
2022-08-08T00:49:11.730Z,4.03
2022-08-08T00:54:36.682Z,6.88
2022-08-08T01:00:08.517Z,5.85
2022-08-08T01:05:42.482Z,4.75
2022-08-08T01:11:55.500Z,6.95
2022-08-08T01:17:08.409Z,4.47
2022-08-08T01:22:45.268Z,6.10
2022-08-08T01:28:15.819Z,4.30
2022-08-08T01:34:00.743Z,4.75
2022-08-08T01:39:35.058Z,5.88
2022-08-08T01:45:09.803Z,3.88
2022-08-08T01:50:35.819Z,5.00
2022-08-08T01:56:31.266Z,6.63
2022-08-08T02:02:05.196Z,4.28
2022-08-08T02:07:28.204Z,4.68
2022-08-08T02:12:57.937Z,7.35
2022-08-08T02:18:18.917Z,4.28
2022-08-08T02:29:01.768Z,4.95
2022-08-08T02:34:14.813Z,6.32
2022-08-08T02:39:40.943Z,7.60
2022-08-08T02:45:18.758Z,5.45
2022-08-08T02:50:55.619Z,6.32
2022-08-08T02:56:37.579Z,4.57
2022-08-08T03:02:20.183Z,7.03
2022-08-08T03:08:05.907Z,4.82
2022-08-08T03:16:01.856Z,5.25
2022-08-08T03:19:51.097Z,4.90
2022-08-08T03:24:56.917Z,4.97
2022-08-08T03:30:11.378Z,5.78
2022-08-08T03:35:27.031Z,5.18
2022-08-08T03:40:32.761Z,6.25
2022-08-08T03:46:07.316Z,5.68
2022-08-08T03:51:06.992Z,5.07
2022-08-08T03:56:09.930Z,5.47
2022-08-08T04:02:12.930Z,6.22
2022-08-08T04:07:01.994Z,6.35
2022-08-08T04:12:11.720Z,5.85
2022-08-08T04:17:45.812Z,7.53
2022-08-08T04:22:43.271Z,7.90
2022-08-08T04:28:35.370Z,9.52
2022-08-08T04:33:08.784Z,6.47
2022-08-08T04:38:21.977Z,6.30
2022-08-08T04:43:32.046Z,6.22
2022-08-08T04:48:51.531Z,6.68
2022-08-08T04:54:39.834Z,5.15
2022-08-08T04:59:16.466Z,7.97
2022-08-08T05:04:18.547Z,7.03
2022-08-08T05:09:21.419Z,7.28
2022-08-08T05:14:24.839Z,6.97
2022-08-08T05:20:11.232Z,7.93
2022-08-08T05:24:56.418Z,9.32
2022-08-08T05:29:58.606Z,10.35
2022-08-08T05:35:06.040Z,9.13
2022-08-08T05:40:14.646Z,11.55
2022-08-08T05:45:25.362Z,11.95
2022-08-08T05:50:33.916Z,11.52
2022-08-08T05:56:09.746Z,11.85
2022-08-08T06:01:01.002Z,11.32
2022-08-08T06:06:07.225Z,13.93
2022-08-08T06:11:13.449Z,11.82
2022-08-08T06:16:25.151Z,10.82
2022-08-08T06:21:57.379Z,12.57
2022-08-08T06:27:16.042Z,11.82
2022-08-08T06:32:31.339Z,12.40
2022-08-08T06:37:39.497Z,12.95
2022-08-08T06:42:57.270Z,12.68
2022-08-08T06:48:06.143Z,11.52
2022-08-08T06:53:17.366Z,11.02
2022-08-08T06:58:30.719Z,12.38
2022-08-08T07:04:40.117Z,12.25
2022-08-08T07:09:41.490Z,10.40
2022-08-08T07:14:58.607Z,8.60
2022-08-08T07:20:07.425Z,11.50
2022-08-08T07:25:17.248Z,8.93
2022-08-08T07:30:27.639Z,9.88
2022-08-08T07:35:35.435Z,10.73
2022-08-08T07:40:39.898Z,8.83
2022-08-08T07:46:05.152Z,7.47
2022-08-08T07:51:22.932Z,9.25
2022-08-08T07:56:35.692Z,8.52
2022-08-08T08:02:35.254Z,8.48
2022-08-08T08:07:22.596Z,9.27
2022-08-08T08:12:41.363Z,8.30
2022-08-08T08:17:55.451Z,7.70
2022-08-08T08:22:58.607Z,7.03
2022-08-08T08:28:00.671Z,8.02
2022-08-08T08:33:05.256Z,6.03
2022-08-08T08:38:18.440Z,5.90
2022-08-08T08:43:30.382Z,7.40
2022-08-08T08:48:35.133Z,4.07
2022-08-08T08:53:56.218Z,6.40
2022-08-08T08:59:05.595Z,5.82
2022-08-08T09:04:30.946Z,5.07
2022-08-08T09:09:47.548Z,4.30
2022-08-08T09:14:57.949Z,5.53
2022-08-08T09:21:59.249Z,5.43
2022-08-08T09:25:35.876Z,7.65
2022-08-08T09:30:53.373Z,4.60
2022-08-08T09:35:56.048Z,4.28
2022-08-08T09:41:03.919Z,4.70
2022-08-08T09:46:07.799Z,3.92
2022-08-08T09:51:15.485Z,5.30
2022-08-08T09:56:25.063Z,3.80
2022-08-08T10:01:59.688Z,3.75
2022-08-08T10:06:53.903Z,5.15
2022-08-08T10:12:27.632Z,6.47
2022-08-08T10:17:57.281Z,3.58
2022-08-08T10:23:00.274Z,3.63
2022-08-08T10:28:06.266Z,5.55
2022-08-08T10:33:09.586Z,4.65
2022-08-08T10:38:16.198Z,3.85
2022-08-08T10:43:18.712Z,3.78
2022-08-08T10:48:32.033Z,4.82
2022-08-08T10:53:56.158Z,4.45
2022-08-08T10:58:59.639Z,4.00
2022-08-08T11:04:04.453Z,3.50
2022-08-08T11:09:19.330Z,5.30
2022-08-08T11:14:26.365Z,4.43
2022-08-08T11:19:31.826Z,3.42
2022-08-08T11:24:37.023Z,5.07
2022-08-08T11:29:58.179Z,4.45
2022-08-08T11:35:23.428Z,3.25
2022-08-08T11:40:31.458Z,5.68
2022-08-08T11:45:48.263Z,3.67
2022-08-08T11:50:55.949Z,2.42
2022-08-08T11:55:57.853Z,2.78
2022-08-08T12:01:03.449Z,3.35
2022-08-08T12:06:16.134Z,3.22
2022-08-08T12:11:26.845Z,4.47
2022-08-08T12:16:39.648Z,2.42
2022-08-08T12:21:59.439Z,2.30
2022-08-08T12:27:18.201Z,3.22
2022-08-08T12:32:22.236Z,2.55
2022-08-08T12:37:41.223Z,2.58
2022-08-08T12:42:47.379Z,3.15
2022-08-08T12:48:09.808Z,3.20
2022-08-08T12:53:36.405Z,3.13
2022-08-08T12:58:47.549Z,2.65
2022-08-08T13:03:51.831Z,2.45
2022-08-08T13:08:56.153Z,1.88
2022-08-08T13:14:03.739Z,2.72
2022-08-08T13:19:13.923Z,3.22
2022-08-08T13:24:18.769Z,3.25
2022-08-08T13:29:49.101Z,2.10
2022-08-08T13:34:54.672Z,4.18
2022-08-08T13:39:57.578Z,2.08
2022-08-08T13:45:01.403Z,2.65
2022-08-08T13:50:35.130Z,1.92
2022-08-08T13:55:36.341Z,2.42
2022-08-08T14:00:40.161Z,3.22
2022-08-08T14:06:00.796Z,2.90
2022-08-08T14:11:03.419Z,2.58
2022-08-08T14:16:15.893Z,2.97
2022-08-08T14:21:20.506Z,1.92
2022-08-08T14:26:28.311Z,2.50
2022-08-08T14:32:06.207Z,3.25
2022-08-08T14:36:54.378Z,3.33
2022-08-08T14:42:03.347Z,4.22
2022-08-08T14:47:17.212Z,2.53
2022-08-08T14:52:23.190Z,2.42
2022-08-08T14:58:02.919Z,2.75
2022-08-08T15:02:58.527Z,3.10
2022-08-08T15:08:21.808Z,2.42
2022-08-08T15:13:24.413Z,3.75
2022-08-08T15:18:29.786Z,2.85
2022-08-08T15:23:33.273Z,4.50
2022-08-08T15:28:36.399Z,3.75
2022-08-08T15:33:59.907Z,2.88
2022-08-08T15:39:00.522Z,2.85
2022-08-08T15:44:02.435Z,4.25
2022-08-08T15:49:05.368Z,3.03
2022-08-08T15:54:07.093Z,2.83
2022-08-08T15:59:20.667Z,2.88
2022-08-08T16:04:42.477Z,3.22
2022-08-08T16:13:08.745Z,2.92
2022-08-08T16:15:07.340Z,2.95
2022-08-08T16:20:13.333Z,3.40
2022-08-08T16:25:15.864Z,3.13
2022-08-08T16:30:32.756Z,3.08
2022-08-08T16:35:38.474Z,2.65
2022-08-08T16:40:40.651Z,2.58
2022-08-08T16:46:44.109Z,4.63
2022-08-08T16:51:04.126Z,2.15
2022-08-08T16:56:14.296Z,2.78
2022-08-08T17:01:16.981Z,3.17
2022-08-08T17:06:36.466Z,3.75
2022-08-08T17:11:48.753Z,3.30
2022-08-08T17:16:58.022Z,2.13
2022-08-08T17:22:01.877Z,2.97
2022-08-08T17:27:05.279Z,2.80
2022-08-08T17:32:09.554Z,3.97
2022-08-08T17:37:12.768Z,3.00
2022-08-08T17:42:17.847Z,2.55
2022-08-08T17:47:23.920Z,4.27
2022-08-08T17:52:28.139Z,2.03
2022-08-08T17:57:35.390Z,2.47
2022-08-08T18:02:38.033Z,4.78
2022-08-08T18:08:15.412Z,3.67
2022-08-08T18:13:04.018Z,1.92
2022-08-08T18:18:29.268Z,2.05
2022-08-08T18:23:30.842Z,3.90
2022-08-08T18:28:41.228Z,2.42
2022-08-08T18:34:25.093Z,2.67
2022-08-08T18:39:28.123Z,5.75
2022-08-08T18:44:32.930Z,2.80
2022-08-08T18:49:40.952Z,3.08
2022-08-08T18:55:00.529Z,1.77
2022-08-08T19:00:19.649Z,3.45
2022-08-08T19:05:23.143Z,2.90
2022-08-08T19:10:24.949Z,2.13
2022-08-08T19:15:33.653Z,2.58
2022-08-08T19:20:39.192Z,2.80
2022-08-08T19:26:26.916Z,1.80
2022-08-08T19:31:07.449Z,2.00
2022-08-08T19:36:14.393Z,1.40
2022-08-08T19:41:21.033Z,3.25
2022-08-08T19:46:23.486Z,3.70
2022-08-08T19:51:34.081Z,3.30
2022-08-08T19:56:40.662Z,3.13
2022-08-08T20:02:02.245Z,3.05
2022-08-08T20:08:29.193Z,1.95
2022-08-08T20:12:32.731Z,3.08
2022-08-08T20:17:40.599Z,3.30
2022-08-08T20:22:43.465Z,2.53
2022-08-08T20:27:50.145Z,1.42
2022-08-08T20:32:55.837Z,2.22
2022-08-08T20:37:59.147Z,3.05
2022-08-08T20:43:01.180Z,2.83
2022-08-08T20:48:03.066Z,1.80
2022-08-08T20:53:06.870Z,1.95
2022-08-08T20:58:23.084Z,1.50
2022-08-08T21:08:36.166Z,1.83
2022-08-08T21:13:43.730Z,1.45
2022-08-08T21:18:45.725Z,3.28
2022-08-08T21:24:02.171Z,4.15
2022-08-08T21:29:06.171Z,1.55
2022-08-08T21:34:09.235Z,4.20
2022-08-08T21:39:23.791Z,3.20
2022-08-08T21:44:59.010Z,2.72
2022-08-08T21:50:02.652Z,2.00
2022-08-08T21:56:06.621Z,2.80
2022-08-08T22:00:27.836Z,2.00
2022-08-08T22:05:37.763Z,1.95
2022-08-08T22:10:43.237Z,2.65
2022-08-08T22:15:58.336Z,2.67
2022-08-08T22:21:10.721Z,3.25
2022-08-08T22:26:28.114Z,2.30
2022-08-08T22:31:32.102Z,2.33
2022-08-08T22:36:38.487Z,1.80
2022-08-08T22:41:44.468Z,2.28
2022-08-08T22:46:46.556Z,2.45
2022-08-08T22:51:54.085Z,3.75
2022-08-08T22:56:58.483Z,2.17
2022-08-08T23:02:03.536Z,2.80
2022-08-08T23:07:06.223Z,3.90
2022-08-08T23:12:28.231Z,2.83
2022-08-08T23:17:30.267Z,2.90
2022-08-08T23:22:32.297Z,2.03
2022-08-08T23:27:46.019Z,4.03
2022-08-08T23:32:49.095Z,4.18
2022-08-08T23:38:01.683Z,1.98
2022-08-08T23:43:05.391Z,2.63
2022-08-08T23:49:05.193Z,1.88
2022-08-08T23:54:04.810Z,3.85
2022-08-08T23:58:51.126Z,1.52
